Latest Weather Observations for Noonamah

IDD60801

Issued at 5:35 pm CST Sunday 26 October 2014 (issued every 30 minutes, with the page automatically refreshed every 10 minutes)

About weather observations | Map of weather stations | Latest weather observations for NT | Other Formats
Station Details ID: 014314 Name: NOONAMAH AIRSTRIP Lat: -12.61 Lon: 131.05 Height: 17.5 m
Data from the previous 72 hours. | See also: Recent months for locations in Northern Territory
Date/Time
CST
Temp
°C
App
Temp
°C
Dew
Point
Rel
Hum
%
Delta-T
°C
Wind Press
QNH
hPa
Press
MSL
hPa
Rain
since 9 am
mm
Dir
 
Spd
km/h
Gust
km/h
Spd
kts
Gust
kts
26/05:30pm 31.9 32.0 19.2 47 8.3 WNW 17 28 9 15 1009.3 1009.1 0.0
26/05:00pm 32.7 32.6 19.6 46 8.6 NW 19 26 10 14 1009.0 1008.8 0.0
26/04:30pm 33.1 32.8 19.2 43 9.1 NW 19 32 10 17 1008.8 1008.6 0.0
26/04:00pm 33.3 33.1 19.7 44 9.0 NW 20 32 11 17 1008.6 1008.4 0.0
26/03:30pm 34.6 36.1 19.8 41 9.9 NNW 11 17 6 9 1008.5 1008.3 0.0
26/03:00pm 36.4 35.5 10.6 21 15.2 SE 6 15 3 8 1008.7 1008.5 0.0
26/02:30pm 36.9 35.6 12.4 23 14.8 ENE 11 24 6 13 1009.2 1009.0 0.0
26/02:00pm 35.5 35.0 12.5 25 13.8 E 7 22 4 12 1009.7 1009.5 0.0
26/01:30pm 36.7 35.5 12.8 24 14.5 ESE 11 22 6 12 1010.3 1010.1 0.0
26/01:00pm 35.5 33.6 13.1 26 13.6 ESE 15 26 8 14 1011.2 1011.0 0.0
26/12:30pm 35.5 34.0 14.2 28 13.1 SSE 15 24 8 13 1011.8 1011.6 0.0
26/12:00pm 34.6 34.3 14.5 30 12.4 SE 9 19 5 10 1012.3 1012.1 0.0
26/11:30am 33.5 33.6 14.5 31 11.7 ESE 7 17 4 9 1012.9 1012.7 0.0
26/11:00am 32.3 32.9 15.7 36 10.3 S 7 15 4 8 1013.4 1013.2 0.0
26/10:30am 32.5 32.5 15.1 35 10.8 NE 9 19 5 10 1014.0 1013.8 0.0
26/10:00am 31.3 32.9 18.3 46 8.4 NE 7 15 4 8 1014.5 1014.3 0.0
26/09:30am 30.6 33.0 18.7 49 7.7 NE 4 13 2 7 1014.5 1014.3 0.0
26/09:00am 29.4 31.7 19.4 55 6.5 NE 6 9 3 5 1014.6 1014.4 0.0
26/08:30am 28.5 31.7 19.7 59 5.7 NNE 2 6 1 3 1014.6 1014.4 0.0
26/08:00am 27.3 31.7 21.3 69 4.0 CALM 0 4 0 2 1014.4 1014.2 0.0
26/07:30am 26.2 30.6 21.4 75 3.2 CALM 0 0 0 0 1014.1 1013.9 0.0
26/07:00am 23.4 27.4 20.5 84 1.9 CALM 0 0 0 0 1013.7 1013.5 0.0
26/06:30am 23.0 26.5 20.3 85 1.7 SSE 2 4 1 2 1013.4 1013.2 0.0
26/06:00am 23.0 26.4 20.1 84 1.9 S 2 4 1 2 1013.0 1012.8 0.0
26/05:30am 23.1 26.9 20.1 83 1.9 CALM 0 0 0 0 1012.6 1012.4 0.0
26/05:00am 23.1 26.8 19.9 82 2.1 CALM 0 0 0 0 1012.3 1012.1 0.0
26/04:30am 22.7 25.5 18.9 79 2.4 NNE 2 4 1 2 1012.2 1012.0 0.0
26/04:00am 23.4 26.7 19.1 77 2.7 CALM 0 0 0 0 1012.6 1012.4 0.0
26/03:30am 24.4 27.3 19.9 76 2.9 SE 4 4 2 2 1012.9 1012.7 0.0
26/03:00am 24.2 26.9 19.5 75 3.0 SE 4 6 2 3 1013.2 1013.0 0.0
26/02:30am 24.1 26.5 18.7 72 3.4 ESE 4 4 2 2 1013.2 1013.0 0.0
26/02:00am 24.5 27.4 18.2 68 4.0 CALM 0 0 0 0 1013.2 1013.0 0.0
26/01:30am 24.6 27.5 18.3 68 4.0 CALM 0 0 0 0 1013.1 1012.9 0.0
26/01:00am 24.3 27.0 17.8 67 4.1 CALM 0 0 0 0 1013.2 1013.0 0.0
26/12:30am 24.8 27.6 18.0 66 4.3 CALM 0 0 0 0 1013.4 1013.2 0.0
26/12:00am 25.3 28.1 18.0 64 4.6 CALM 0 0 0 0 1013.7 1013.5 0.0
 
Date/Time
CST
Temp
°C
App
Temp
°C
Dew
Point
Rel
Hum
%
Delta-T
°C
Wind Press
QNH
hPa
Press
MSL
hPa
Rain
since 9 am
mm
Dir
 
Spd
km/h
Gust
km/h
Spd
kts
Gust
kts
25/11:30pm 26.1 28.7 18.5 63 4.8 SW 2 4 1 2 1013.7 1013.5 0.0
25/11:00pm 26.5 29.5 18.4 61 5.2 CALM 0 2 0 1 1013.8 1013.6 0.0
25/10:30pm 26.3 28.7 17.1 57 5.7 CALM 0 0 0 0 1013.7 1013.5 0.0
25/10:00pm 26.2 28.0 16.4 54 6.0 E 2 4 1 2 1013.7 1013.5 0.0
25/09:30pm 27.5 29.1 16.8 52 6.7 SSE 4 4 2 2 1013.3 1013.1 0.0
25/09:00pm 27.9 30.1 16.5 50 7.1 CALM 0 0 0 0 1012.9 1012.7 0.0
25/08:30pm 28.7 30.1 16.3 47 7.7 N 4 6 2 3 1012.4 1012.2 0.0
25/08:00pm 29.5 30.9 16.3 45 8.2 NNW 4 7 2 4 1012.1 1011.9 0.0
25/07:30pm 30.2 30.7 15.5 41 9.1 NW 7 11 4 6 1011.6 1011.4 0.0
25/07:00pm 30.8 30.9 15.6 39 9.4 NW 9 15 5 8 1011.2 1011.0 0.0
25/06:30pm 31.6 31.3 16.4 40 9.6 NW 13 20 7 11 1010.7 1010.5 0.0
25/06:00pm 32.8 33.3 16.6 38 10.3 NW 9 19 5 10 1010.2 1010.0 0.0
25/05:30pm 33.1 33.0 16.9 38 10.3 NW 13 19 7 10 1009.9 1009.7 0.0
25/05:00pm 33.7 33.6 16.1 34 11.1 NNW 11 22 6 12 1009.5 1009.3 0.0
25/04:30pm 34.0 34.3 15.9 33 11.4 NNW 9 19 5 10 1009.5 1009.3 0.0
25/04:00pm 36.6 36.1 12.8 24 14.4 S 7 19 4 10 1009.7 1009.5 0.0
25/03:30pm 37.1 36.8 13.2 24 14.6 E 7 22 4 12 1010.0 1009.8 0.0
25/03:00pm 36.2 34.1 12.4 24 14.4 ESE 15 26 8 14 1010.3 1010.1 0.0
25/02:30pm 36.1 35.3 13.0 25 14.0 SE 9 24 5 13 1010.7 1010.5 0.0
25/02:00pm 35.1 33.7 13.3 27 13.3 E 13 22 7 12 1011.0 1010.8 0.0
25/01:30pm 35.7 34.1 13.8 27 13.4 E 15 37 8 20 1011.4 1011.2 0.0
25/01:00pm 35.4 34.6 14.1 28 13.1 SE 11 24 6 13 1012.1 1011.9 0.0
25/12:30pm 34.9 33.8 13.1 27 13.2 ESE 11 22 6 12 1012.7 1012.5 0.0
25/12:00pm 34.8 33.1 13.6 28 12.9 ESE 15 30 8 16 1013.3 1013.1 0.0
25/11:30am 34.1 32.6 14.1 30 12.3 SE 15 20 8 11 1013.8 1013.6 0.0
25/11:00am 33.1 33.1 15.1 33 11.2 E 9 22 5 12 1014.2 1014.0 0.0
25/10:30am 31.7 31.9 16.8 40 9.4 NNE 11 19 6 10 1014.5 1014.3 0.0
25/10:00am 31.9 33.0 17.0 41 9.5 ENE 7 17 4 9 1014.9 1014.7 0.0
25/09:30am 30.6 32.9 19.9 52 7.0 E 7 17 4 9 1015.2 1015.0 0.0
25/09:00am 28.8 31.0 20.5 61 5.5 ENE 9 17 5 9 1015.4 1015.2 0.0
25/08:30am 28.5 31.3 21.5 66 4.7 E 9 13 5 7 1015.5 1015.3 0.0
25/08:00am 28.1 31.5 21.6 68 4.4 ESE 6 7 3 4 1015.4 1015.2 0.0
25/07:30am 26.2 29.8 21.2 74 3.3 E 4 7 2 4 1015.1 1014.9 0.0
25/07:00am 24.4 27.8 20.9 81 2.3 E 4 6 2 3 1014.5 1014.3 0.0
25/06:30am 23.9 27.5 21.2 85 1.8 ESE 4 6 2 3 1014.2 1014.0 0.0
25/06:00am 23.9 27.5 21.2 85 1.8 E 4 6 2 3 1013.8 1013.6 0.0
25/05:30am 24.2 28.2 21.3 84 1.9 E 2 4 1 2 1013.4 1013.2 0.0
25/05:00am 24.6 28.3 21.5 83 2.1 E 4 6 2 3 1013.1 1012.9 0.0
25/04:30am 24.8 28.5 21.5 82 2.2 E 4 6 2 3 1012.8 1012.6 0.0
25/04:00am 25.1 28.9 21.6 81 2.3 E 4 6 2 3 1012.6 1012.4 0.0
25/03:30am 25.6 29.0 21.7 79 2.6 ENE 6 6 3 3 1012.4 1012.2 0.0
25/03:00am 26.0 30.3 21.9 78 2.7 ENE 2 4 1 2 1012.6 1012.4 0.0
25/02:30am 26.2 30.2 22.1 78 2.7 E 4 7 2 4 1012.8 1012.6 0.0
25/02:00am 26.3 29.8 22.2 78 2.8 E 7 11 4 6 1013.0 1012.8 0.0
25/01:30am 27.4 32.0 22.4 74 3.4 SW 2 4 1 2 1012.9 1012.7 0.0
25/01:00am 27.4 31.6 22.4 74 3.4 WNW 4 7 2 4 1012.9 1012.7 0.0
25/12:30am 27.5 31.6 22.2 73 3.6 NE 4 6 2 3 1013.0 1012.8 0.0
25/12:00am 27.9 32.1 22.4 72 3.7 NNW 4 7 2 4 1013.1 1012.9 0.0
 
Date/Time
CST
Temp
°C
App
Temp
°C
Dew
Point
Rel
Hum
%
Delta-T
°C
Wind Press
QNH
hPa
Press
MSL
hPa
Rain
since 9 am
mm
Dir
 
Spd
km/h
Gust
km/h
Spd
kts
Gust
kts
24/11:30pm 27.8 31.8 22.7 74 3.5 N 6 7 3 4 1013.1 1012.9 0.0
24/11:00pm 27.7 31.9 22.4 73 3.6 N 4 6 2 3 1013.1 1012.9 0.0
24/10:30pm 27.8 31.4 22.1 71 3.8 N 6 7 3 4 1012.9 1012.7 0.0
24/10:00pm 27.8 30.9 21.1 67 4.4 NNE 6 11 3 6 1012.7 1012.5 0.0
24/09:30pm 28.2 31.5 20.0 61 5.4 ENE 2 4 1 2 1012.3 1012.1 0.0
24/09:00pm 28.8 31.6 19.7 58 5.9 ENE 4 6 2 3 1011.7 1011.5 0.0
24/08:30pm 29.1 31.8 19.4 55 6.3 NE 4 6 2 3 1011.2 1011.0 0.0
24/08:00pm 29.6 31.8 19.3 54 6.7 NNE 6 7 3 4 1010.9 1010.7 0.0
24/07:30pm 30.1 31.7 19.2 52 7.1 N 9 17 5 9 1010.4 1010.2 0.0
24/07:00pm 31.2 32.8 16.8 42 9.1 NNE 4 7 2 4 1009.8 1009.6 0.0
24/06:30pm 31.8 32.3 16.5 39 9.6 NNE 9 13 5 7 1009.4 1009.2 0.0
24/06:00pm 32.6 32.8 16.8 38 10.0 NE 11 19 6 10 1009.0 1008.8 0.0
24/05:30pm 33.7 33.5 16.6 36 10.9 NE 13 22 7 12 1008.3 1008.1 0.0
24/05:00pm 34.2 33.7 17.0 36 11.0 NE 15 26 8 14 1008.3 1008.1 0.0
24/04:30pm 35.0 34.5 17.7 36 11.2 NE 17 24 9 13 1008.3 1008.1 0.0
24/04:00pm 34.9 35.5 18.5 38 10.7 NW 13 24 7 13 1008.4 1008.2 0.0
24/03:30pm 35.0 34.8 17.7 36 11.2 NW 15 30 8 16 1008.7 1008.5 0.0
24/03:00pm 34.8 35.7 18.4 38 10.7 NW 11 20 6 11 1008.8 1008.6 0.0
24/02:30pm 37.1 35.0 12.5 23 14.9 ESE 15 28 8 15 1008.9 1008.7 0.0
24/02:00pm 37.4 35.4 12.8 23 15.0 SE 15 33 8 18 1009.3 1009.1 0.0
24/01:30pm 36.3 34.8 14.3 27 13.6 SE 15 28 8 15 1009.9 1009.7 0.0
24/01:00pm 34.9 34.2 14.2 28 12.7 E 11 20 6 11 1010.5 1010.3 0.0
24/12:30pm 35.6 34.1 14.3 28 13.2 E 15 33 8 18 1011.2 1011.0 0.0
24/12:00pm 35.2 32.3 13.9 27 13.1 SE 22 26 12 14 1011.9 1011.7 0.0
24/11:30am 33.8 32.9 14.8 32 11.8 E 13 26 7 14 1012.4 1012.2 0.0
24/11:00am 33.8 33.2 15.7 33 11.3 E 13 20 7 11 1013.0 1012.8 0.0
24/10:30am 31.6 31.5 17.9 44 8.8 ENE 15 22 8 12 1013.6 1013.4 0.0
24/10:00am 30.9 32.0 19.6 51 7.4 ENE 13 19 7 10 1014.0 1013.8 0.0
24/09:30am 30.4 31.9 19.7 52 7.0 NE 11 19 6 10 1014.1 1013.9 0.0
24/09:00am 29.7 32.5 20.8 58 5.9 ENE 7 13 4 7 1014.2 1014.0 0.0
24/08:30am 28.8 32.3 21.1 63 5.1 NE 4 7 2 4 1014.2 1014.0 0.0
24/08:00am 27.6 31.4 21.6 70 4.0 E 4 6 2 3 1014.0 1013.8 0.0
24/07:30am 25.6 29.8 21.7 79 2.6 E 2 4 1 2 1013.6 1013.4 0.0
24/07:00am 24.1 28.7 21.8 87 1.5 CALM 0 0 0 0 1013.4 1013.2 0.0
24/06:30am 22.8 27.0 20.9 89 1.2 CALM 0 0 0 0 1013.2 1013.0 0.0
24/06:00am 23.3 27.4 20.8 86 1.6 CALM 0 0 0 0 1012.9 1012.7 0.0
24/05:30am 23.9 28.3 21.4 86 1.6 CALM 0 0 0 0 1012.7 1012.5 0.0
24/05:00am 23.9 28.3 21.4 86 1.6 CALM 0 0 0 0 1012.4 1012.2 0.0
24/04:30am 23.9 27.6 20.8 83 2.0 NNE 2 4 1 2 1012.3 1012.1 0.0
24/04:00am 24.4 28.2 20.9 81 2.3 NE 2 4 1 2 1012.4 1012.2 0.0
24/03:30am 25.2 29.7 21.5 80 2.5 CALM 0 2 0 1 1012.2 1012.0 0.0
24/03:00am 25.2 29.5 21.1 78 2.7 CALM 0 0 0 0 1012.3 1012.1 0.0
24/02:30am 26.1 30.0 21.1 74 3.3 SSW 2 4 1 2 1012.5 1012.3 0.0
24/02:00am 26.9 31.2 21.2 71 3.8 CALM 0 0 0 0 1013.0 1012.8 0.0
24/01:30am 27.3 31.5 20.9 68 4.2 CALM 0 0 0 0 1013.2 1013.0 0.0
24/01:00am 27.7 30.8 21.0 67 4.4 W 6 7 3 4 1013.3 1013.1 0.0
24/12:30am 27.5 30.5 20.8 67 4.4 NNE 6 7 3 4 1013.7 1013.5 0.0
24/12:00am 27.7 29.5 19.5 61 5.3 NW 9 15 5 8 1013.4 1013.2 0.0
 
Date/Time
CST
Temp
°C
App
Temp
°C
Dew
Point
Rel
Hum
%
Delta-T
°C
Wind Press
QNH
hPa
Press
MSL
hPa
Rain
since 9 am
mm
Dir
 
Spd
km/h
Gust
km/h
Spd
kts
Gust
kts
23/11:30pm 26.6 29.6 20.9 71 3.8 N 6 13 3 7 1013.4 1013.2 0.0
23/11:00pm 26.4 29.0 19.3 65 4.6 NE 4 6 2 3 1013.4 1013.2 0.0
23/10:30pm 26.6 28.6 17.9 59 5.5 NE 4 4 2 2 1013.3 1013.1 0.0
23/10:00pm 27.2 28.5 17.1 54 6.3 ESE 6 6 3 3 1013.0 1012.8 0.0
23/09:30pm 27.2 29.0 17.4 55 6.2 ESE 4 6 2 3 1012.3 1012.1 0.0
23/09:00pm 27.8 30.4 17.6 53 6.4 CALM 0 0 0 0 1011.7 1011.5 0.0
23/08:30pm 28.7 30.8 16.3 47 7.7 CALM 0 0 0 0 1011.2 1011.0 0.0
23/08:00pm 30.1 31.3 15.8 42 8.9 NW 4 6 2 3 1010.8 1010.6 0.0
23/07:30pm 30.8 32.2 16.4 42 9.0 NW 4 7 2 4 1010.4 1010.2 0.0
23/07:00pm 31.6 32.5 16.0 39 9.7 NNW 6 7 3 4 1009.9 1009.7 0.0
23/06:30pm 32.5 33.0 15.5 36 10.6 N 7 11 4 6 1009.5 1009.3 0.0
23/06:00pm 33.5 33.2 15.5 34 11.3 NNW 11 17 6 9 1008.9 1008.7 0.0

Other Formats:

Comma delimited format used in spreadsheet applications
http://www.bom.gov.au/fwo/IDD60801/IDD60801.94105.axf

JavaScript Object Notation format (JSON) in row-major order
http://www.bom.gov.au/fwo/IDD60801/IDD60801.94105.json